Time;durP1;ratioP1;P1;durP2;ratioP2;P2;SDS_P1;SDS_P2;PMS_P1;PMS_P2;Temp;Humidity;BMP_temperature;BMP_pressure;BME280_temperature;BME280_humidity;BME280_pressure;Samples;Min_cycle;Max_cycle;Signal;HPM_P1;HPM_P2
2024/02/25 00:01:51;;;;;;;12.75;7.07;;;;;;;13.10;56.91;99744.47;5050679;28;20029;-40
2024/02/25 00:04:17;;;;;;;13.70;6.65;;;;;;;13.05;56.95;99730.94;5042332;28;20056;-38
2024/02/25 00:06:45;;;;;;;12.25;6.70;;;;;;;13.04;57.06;99733.81;5039144;28;20021;-41
2024/02/25 00:09:11;;;;;;;12.00;7.00;;;;;;;13.13;57.17;99727.16;5030494;28;20579;-38
2024/02/25 00:11:40;;;;;;;11.55;6.70;;;;;;;13.25;57.02;99728.06;5030656;28;20028;-40
2024/02/25 00:14:05;;;;;;;11.33;7.27;;;;;;;13.45;56.55;99722.53;5030611;28;20036;-38
2024/02/25 00:16:31;;;;;;;13.10;6.53;;;;;;;13.43;56.48;99731.81;5040057;28;20025;-40
2024/02/25 00:18:56;;;;;;;12.10;7.07;;;;;;;13.14;57.52;99726.13;5043153;28;20033;-38
2024/02/25 00:21:21;;;;;;;10.25;6.90;;;;;;;13.32;57.34;99721.88;5041477;28;20013;-40
2024/02/25 00:23:47;;;;;;;14.63;6.85;;;;;;;13.14;57.90;99715.44;5030860;28;20052;-39
2024/02/25 00:26:12;;;;;;;11.68;7.03;;;;;;;13.24;57.75;99715.75;5030135;28;20077;-39
2024/02/25 00:28:37;;;;;;;13.98;7.32;;;;;;;12.81;59.12;99713.91;5035312;28;20029;-37
2024/02/25 00:31:03;;;;;;;13.70;7.28;;;;;;;12.97;59.08;99712.53;5049603;28;20040;-37
2024/02/25 00:33:28;;;;;;;12.20;6.95;;;;;;;13.27;58.56;99715.31;5047925;28;20134;-39
2024/02/25 00:35:54;;;;;;;12.73;7.07;;;;;;;13.21;58.74;99721.53;5030042;28;20091;-40
2024/02/25 00:38:19;;;;;;;12.40;7.60;;;;;;;13.66;57.22;99709.75;5030335;28;20143;-40
2024/02/25 00:40:44;;;;;;;12.38;7.65;;;;;;;13.31;58.00;99705.03;5044122;28;20433;-39
2024/02/25 00:43:10;;;;;;;12.82;7.40;;;;;;;12.84;59.89;99693.94;5050196;28;20028;-38
2024/02/25 00:45:35;;;;;;;11.00;7.07;;;;;;;12.85;59.88;99685.72;5038354;28;20025;-38
2024/02/25 00:48:00;;;;;;;12.02;7.70;;;;;;;13.04;59.62;99685.72;5029838;28;20028;-40
2024/02/25 00:50:26;;;;;;;12.98;7.38;;;;;;;13.21;58.89;99686.81;5029993;28;20059;-39
2024/02/25 00:52:51;;;;;;;14.27;7.35;;;;;;;13.11;58.96;99687.28;5031885;28;20551;-40
2024/02/25 00:55:17;;;;;;;15.25;7.45;;;;;;;13.16;58.92;99686.66;5029726;28;20021;-39
2024/02/25 00:57:42;;;;;;;14.45;7.13;;;;;;;13.24;59.47;99691.69;5029710;28;20112;-40
2024/02/25 01:00:08;;;;;;;10.68;7.20;;;;;;;13.10;60.16;99690.22;5029842;28;20095;-40
2024/02/25 01:02:33;;;;;;;10.23;6.22;;;;;;;13.25;59.53;99700.50;5036014;28;20017;-39
2024/02/25 01:04:59;;;;;;;11.93;6.70;;;;;;;13.21;59.96;99694.00;5049807;28;20016;-40
2024/02/25 01:07:24;;;;;;;14.63;6.75;;;;;;;13.29;59.82;99697.19;5041189;28;20469;-40
2024/02/25 01:09:50;;;;;;;11.05;6.75;;;;;;;13.28;59.89;99695.53;5029220;28;20041;-41
2024/02/25 01:12:15;;;;;;;10.73;6.45;;;;;;;13.56;59.10;99696.91;5030199;28;20623;-40
2024/02/25 01:14:41;;;;;;;12.77;6.97;;;;;;;13.42;59.01;99706.13;5037333;28;20029;-27
2024/02/25 01:17:07;;;;;;;11.55;7.00;;;;;;;13.23;60.17;99707.94;5045245;28;20043;-28
2024/02/25 01:19:32;;;;;;;12.80;7.32;;;;;;;13.11;61.37;99713.19;5047250;28;20029;-28
2024/02/25 01:21:58;;;;;;;15.30;7.32;;;;;;;13.28;60.74;99714.25;5041975;28;20021;-27
2024/02/25 01:24:23;;;;;;;14.75;7.43;;;;;;;12.92;62.13;99717.69;5043876;28;20029;-27
2024/02/25 01:26:49;;;;;;;9.65;6.07;;;;;;;12.73;63.25;99713.34;5037092;28;20044;-27
2024/02/25 01:29:14;;;;;;;15.65;7.18;;;;;;;13.12;61.79;99714.84;5041606;28;20060;-25
2024/02/25 01:31:44;;;;;;;11.18;6.57;;;;;;;12.75;63.86;99700.59;5034756;28;20091;-25
2024/02/25 01:34:10;;;;;;;;;;;;;;;12.62;64.41;99705.03;5042025;28;20024;-26
2024/02/25 01:36:35;;;;;;;11.52;6.53;;;;;;;12.37;65.75;99702.31;5044479;28;20428;-27
2024/02/25 01:39:03;;;;;;;15.35;6.53;;;;;;;12.51;65.44;99711.06;5037272;28;20457;-26
2024/02/25 01:41:28;;;;;;;10.52;6.72;;;;;;;12.74;64.87;99713.13;5038686;28;20127;-26
2024/02/25 01:43:54;;;;;;;10.77;6.85;;;;;;;12.78;64.45;99698.31;5047625;28;20104;-27
2024/02/25 01:46:19;;;;;;;13.73;7.00;;;;;;;13.00;64.27;99712.06;5037858;28;20530;-26
2024/02/25 01:48:50;;;;;;;10.65;6.28;;;;;;;13.15;63.76;99700.22;5042029;28;20119;-27
2024/02/25 01:51:17;;;;;;;10.43;6.10;;;;;;;13.05;64.60;99693.53;5036661;28;20083;-26
2024/02/25 01:53:45;;;;;;;10.23;6.47;;;;;;;12.74;66.00;99686.44;5041238;28;20028;-27
2024/02/25 01:56:11;;;;;;;12.57;7.05;;;;;;;12.31;68.22;99689.84;5039845;28;20063;-27
2024/02/25 01:58:37;;;;;;;11.20;6.38;;;;;;;12.52;67.85;99681.47;5040230;28;20091;-27
2024/02/25 02:01:03;;;;;;;13.50;6.72;;;;;;;12.62;67.71;99669.47;5041866;28;20024;-27
2024/02/25 02:03:28;;;;;;;10.73;6.13;;;;;;;12.18;69.68;99674.72;5042843;28;20056;-27
2024/02/25 02:05:54;;;;;;;12.63;6.47;;;;;;;12.29;69.33;99678.56;5039597;28;20068;-27
2024/02/25 02:08:19;;;;;;;10.32;6.40;;;;;;;12.43;68.58;99681.94;5039171;28;20116;-27
2024/02/25 02:10:44;;;;;;;13.18;6.72;;;;;;;12.49;68.49;99676.56;5037520;28;20029;-27
2024/02/25 02:13:10;;;;;;;8.70;5.95;;;;;;;12.80;68.00;99682.06;5046970;28;20028;-27
2024/02/25 02:15:35;;;;;;;10.18;6.40;;;;;;;12.59;68.76;99684.09;5044159;28;20029;-29
2024/02/25 02:18:03;;;;;;;11.18;6.47;;;;;;;12.33;69.52;99696.59;5046291;28;20055;-27
2024/02/25 02:20:30;;;;;;;10.75;6.60;;;;;;;12.80;68.20;99688.22;5043395;28;20017;-27
2024/02/25 02:22:56;;;;;;;10.15;6.30;;;;;;;12.35;69.17;99699.03;5036269;28;20033;-27
2024/02/25 02:25:21;;;;;;;13.88;6.63;;;;;;;12.49;69.46;99702.47;5036248;28;20093;-27
2024/02/25 02:27:47;;;;;;;8.90;5.82;;;;;;;12.43;69.18;99705.97;5039604;28;20052;-28
2024/02/25 02:30:13;;;;;;;12.45;6.15;;;;;;;12.25;70.29;99717.38;5038548;28;20029;-27
2024/02/25 02:32:39;;;;;;;11.23;6.25;;;;;;;12.54;69.28;99723.16;5035860;28;20057;-27
2024/02/25 02:35:05;;;;;;;12.00;6.10;;;;;;;12.20;70.02;99719.88;5035688;28;20051;-27
2024/02/25 02:37:31;;;;;;;13.75;6.53;;;;;;;12.30;70.04;99725.56;5036363;28;20076;-28
2024/02/25 02:39:57;;;;;;;11.75;6.43;;;;;;;12.32;69.72;99718.16;5040470;28;20033;-27
2024/02/25 02:42:23;;;;;;;13.40;7.25;;;;;;;12.49;69.85;99716.63;5037746;28;20021;-26
2024/02/25 02:44:50;;;;;;;11.63;6.35;;;;;;;12.42;70.55;99728.38;5040012;28;20022;-26
2024/02/25 02:47:20;;;;;;;11.25;6.18;;;;;;;12.46;70.44;99732.25;5040220;28;20029;-27
2024/02/25 02:49:47;;;;;;;10.30;6.63;;;;;;;12.49;70.64;99721.94;5042060;28;20029;-27
2024/02/25 02:52:13;;;;;;;9.90;6.28;;;;;;;12.47;70.13;99724.03;5040155;28;20112;-26
2024/02/25 02:54:38;;;;;;;13.48;6.35;;;;;;;12.30;71.57;99725.56;5039215;28;20603;-26
2024/02/25 02:57:04;;;;;;;13.57;6.75;;;;;;;12.27;71.80;99732.16;5037133;28;20126;-26
2024/02/25 02:59:29;;;;;;;13.68;6.95;;;;;;;12.21;72.73;99721.53;5040861;28;20032;-27
2024/02/25 03:01:55;;;;;;;11.20;6.57;;;;;;;12.36;71.89;99727.38;5039784;28;20155;-27
2024/02/25 03:04:22;;;;;;;9.02;6.45;;;;;;;12.48;71.97;99736.31;5043664;28;20413;-26
2024/02/25 03:06:48;;;;;;;14.27;7.55;;;;;;;12.55;71.76;99735.47;5039945;28;20029;-27
2024/02/25 03:09:13;;;;;;;12.82;7.25;;;;;;;12.52;72.57;99745.53;5036051;28;20098;-26
2024/02/25 03:11:39;;;;;;;13.00;7.10;;;;;;;12.45;72.69;99739.44;5036986;28;20032;-26
2024/02/25 03:14:04;;;;;;;13.48;7.25;;;;;;;12.63;71.94;99748.53;5033708;28;20358;-26
2024/02/25 03:16:30;;;;;;;15.02;7.35;;;;;;;12.53;72.73;99751.69;5037446;28;20029;-26
2024/02/25 03:18:56;;;;;;;10.73;7.22;;;;;;;12.39;74.23;99750.13;5037444;28;20389;-26
2024/02/25 03:21:22;;;;;;;13.88;6.90;;;;;;;12.24;74.52;99747.75;5039225;28;20048;-26
2024/02/25 03:23:47;;;;;;;13.43;7.30;;;;;;;12.02;75.78;99747.28;5037530;28;20037;-26
2024/02/25 03:26:15;;;;;;;12.52;7.60;;;;;;;12.02;76.46;99748.09;5037902;28;20053;-26
2024/02/25 03:28:40;;;;;;;17.25;8.15;;;;;;;12.08;77.01;99744.56;5040185;28;20108;-26
2024/02/25 03:31:06;;;;;;;13.85;7.82;;;;;;;12.06;77.83;99743.97;5043979;28;20112;-27
2024/02/25 03:33:31;;;;;;;11.63;7.70;;;;;;;12.01;76.95;99734.97;5036038;28;20108;-25
2024/02/25 03:35:56;;;;;;;14.32;8.43;;;;;;;11.96;78.78;99743.59;5035200;28;20111;-26
2024/02/25 03:38:22;;;;;;;12.65;8.23;;;;;;;12.11;77.41;99744.16;5038019;28;20029;-26
2024/02/25 03:40:47;;;;;;;13.57;8.75;;;;;;;12.23;77.10;99752.28;5043299;28;20220;-26
2024/02/25 03:43:14;;;;;;;17.10;9.13;;;;;;;12.07;77.42;99758.94;5041152;28;20469;-26
2024/02/25 03:45:41;;;;;;;14.65;9.25;;;;;;;12.45;75.62;99755.44;5045375;28;20026;-26
2024/02/25 03:48:06;;;;;;;12.85;8.95;;;;;;;12.75;74.38;99764.69;5040815;28;20473;-26
2024/02/25 03:50:32;;;;;;;15.90;8.18;;;;;;;12.29;76.25;99756.75;5045748;28;20072;-26
2024/02/25 03:52:57;;;;;;;14.05;8.60;;;;;;;12.11;76.89;99759.34;5040020;28;20109;-37
2024/02/25 03:55:24;;;;;;;15.52;8.70;;;;;;;11.90;79.28;99755.13;5045783;28;20052;-38
2024/02/25 03:57:50;;;;;;;14.65;9.13;;;;;;;12.06;78.57;99765.28;5033899;28;20037;-38
2024/02/25 04:00:16;;;;;;;16.75;8.85;;;;;;;12.41;76.58;99772.09;5039143;28;20017;-39
2024/02/25 04:02:41;;;;;;;16.63;8.38;;;;;;;12.46;75.84;99785.63;5031037;28;20041;-39
2024/02/25 04:05:07;;;;;;;13.52;9.15;;;;;;;12.25;76.84;99792.91;5031673;28;20026;-38
2024/02/25 04:07:33;;;;;;;15.07;8.52;;;;;;;12.14;78.38;99796.25;5030909;28;20018;-39
2024/02/25 04:09:58;;;;;;;16.70;8.32;;;;;;;12.13;78.53;99781.28;5032412;28;20060;-39
2024/02/25 04:12:23;;;;;;;12.88;7.80;;;;;;;12.12;77.43;99783.09;5031119;28;20449;-40
2024/02/25 04:14:49;;;;;;;12.75;7.80;;;;;;;12.17;77.97;99771.00;5030958;28;20040;-39
2024/02/25 04:17:14;;;;;;;13.57;7.40;;;;;;;12.29;77.25;99771.97;5030767;28;20029;-40
2024/02/25 04:19:39;;;;;;;11.80;7.57;;;;;;;12.26;77.53;99764.38;5031413;28;20041;-40
2024/02/25 04:22:05;;;;;;;12.82;8.35;;;;;;;12.23;78.71;99760.28;5031065;28;20175;-39
2024/02/25 04:24:30;;;;;;;14.73;7.45;;;;;;;12.26;77.42;99751.88;5030625;28;20049;-40
2024/02/25 04:26:55;;;;;;;13.48;7.03;;;;;;;12.16;77.36;99746.16;5030668;28;20033;-38
2024/02/25 04:29:21;;;;;;;11.20;7.18;;;;;;;12.38;76.45;99744.00;5033552;28;20041;-27
2024/02/25 04:31:46;;;;;;;11.25;6.65;;;;;;;12.32;75.51;99739.53;5038629;28;20396;-27
2024/02/25 04:34:12;;;;;;;12.68;6.90;;;;;;;12.23;76.39;99730.94;5040243;28;20025;-28
2024/02/25 04:36:38;;;;;;;12.40;7.00;;;;;;;12.24;76.82;99745.94;5045789;28;20040;-27
2024/02/25 04:39:04;;;;;;;13.32;7.30;;;;;;;12.37;76.38;99752.22;5044498;28;20029;-27
2024/02/25 04:41:29;;;;;;;11.30;6.90;;;;;;;12.26;76.32;99753.69;5040007;28;20074;-27
2024/02/25 04:43:55;;;;;;;13.45;7.55;;;;;;;12.10;77.27;99763.03;5037517;28;20493;-27
2024/02/25 04:46:20;;;;;;;11.70;7.60;;;;;;;12.28;77.27;99770.31;5046996;28;20043;-27
2024/02/25 04:48:47;;;;;;;10.60;6.60;;;;;;;12.15;77.24;99776.56;5040662;28;20022;-27
2024/02/25 04:51:12;;;;;;;11.20;6.93;;;;;;;12.12;77.56;99779.63;5037824;28;20083;-33
2024/02/25 04:53:37;;;;;;;10.20;7.18;;;;;;;12.33;76.63;99786.50;5037692;28;20150;-27
2024/02/25 04:56:03;;;;;;;14.98;7.43;;;;;;;12.24;77.73;99785.09;5038333;28;20021;-28
2024/02/25 04:58:29;;;;;;;12.93;7.43;;;;;;;12.16;78.06;99782.69;5037438;28;20029;-27
2024/02/25 05:00:54;;;;;;;10.23;6.78;;;;;;;12.29;77.39;99788.78;5044568;28;20103;-27
2024/02/25 05:03:21;;;;;;;11.88;7.15;;;;;;;12.78;74.81;99797.13;5038287;28;20402;-27
2024/02/25 05:05:46;;;;;;;12.77;7.97;;;;;;;12.84;74.25;99806.09;5039527;28;20029;-26
2024/02/25 05:08:12;;;;;;;13.07;7.78;;;;;;;12.76;73.60;99806.38;5038765;28;20020;-27
2024/02/25 05:10:40;;;;;;;11.32;7.15;;;;;;;12.72;74.36;99816.66;5038222;28;20028;-27
2024/02/25 05:13:07;;;;;;;12.25;7.93;;;;;;;12.70;73.99;99810.72;5039059;28;20037;-27
2024/02/25 05:15:35;;;;;;;10.85;6.90;;;;;;;12.11;75.68;99810.84;5039368;28;20029;-27
2024/02/25 05:18:01;;;;;;;15.45;7.38;;;;;;;11.92;77.76;99803.72;5038970;28;20021;-27
2024/02/25 05:20:26;;;;;;;13.82;7.70;;;;;;;12.08;77.51;99805.09;5034061;28;20548;-26
2024/02/25 05:22:53;;;;;;;13.15;7.30;;;;;;;12.03;77.49;99810.25;5042633;28;20573;-27
2024/02/25 05:25:19;;;;;;;11.93;7.75;;;;;;;11.99;78.40;99814.38;5040431;28;20040;-26
2024/02/25 05:27:44;;;;;;;13.60;7.93;;;;;;;11.95;78.26;99807.81;5038935;28;20378;-27
2024/02/25 05:30:10;;;;;;;15.93;8.00;;;;;;;12.09;77.57;99812.91;5040315;28;20500;-26
2024/02/25 05:32:36;;;;;;;11.63;7.85;;;;;;;12.21;77.52;99810.38;5040703;28;20119;-27
2024/02/25 05:35:06;;;;;;;13.57;8.27;;;;;;;12.09;78.20;99807.56;5038600;28;20080;-27
2024/02/25 05:37:31;;;;;;;;;;;;;;;12.25;77.98;99813.44;5035642;28;20025;-28
2024/02/25 05:39:56;;;;;;;21.85;11.82;;;;;;;12.08;78.68;99813.91;5038439;28;19913;-26
2024/02/25 05:42:22;;;;;;;18.63;11.43;;;;;;;11.83;79.66;99804.97;5038472;28;20029;-26
2024/02/25 05:44:48;;;;;;;18.48;10.77;;;;;;;12.02;78.85;99822.75;5040007;28;20035;-27
2024/02/25 05:47:14;;;;;;;13.63;8.60;;;;;;;11.87;79.36;99820.31;5038393;28;20502;-27
2024/02/25 05:49:39;;;;;;;17.77;9.45;;;;;;;11.95;78.70;99816.63;5037451;28;20033;-27
2024/02/25 05:52:05;;;;;;;13.77;8.27;;;;;;;12.12;77.40;99804.44;5038201;28;20036;-29
2024/02/25 05:54:30;;;;;;;14.82;8.35;;;;;;;12.76;75.96;99817.88;5039849;28;20116;-27
2024/02/25 05:56:56;;;;;;;13.95;8.52;;;;;;;13.05;73.60;99819.09;5041668;28;20111;-27
2024/02/25 05:59:21;;;;;;;13.18;7.75;;;;;;;12.49;74.80;99820.72;5043602;28;20761;-27
2024/02/25 06:01:49;;;;;;;12.23;7.80;;;;;;;12.25;76.54;99818.78;5043454;28;20021;-26
2024/02/25 06:04:16;;;;;;;12.82;8.20;;;;;;;12.36;77.24;99810.09;5039205;28;20524;-26
2024/02/25 06:06:48;;;;;;;13.65;7.70;;;;;;;12.86;75.30;99812.06;5038827;28;20126;-27
2024/02/25 06:09:13;;;;;;;14.82;7.75;;;;;;;12.52;75.66;99806.09;5037569;28;20480;-27
2024/02/25 06:11:39;;;;;;;13.32;7.55;;;;;;;12.11;77.73;99812.69;5042384;28;20139;-26
2024/02/25 06:14:04;;;;;;;12.75;8.40;;;;;;;12.12;78.41;99808.97;5035644;28;20044;-27
2024/02/25 06:16:32;;;;;;;12.63;8.32;;;;;;;12.12;78.45;99815.13;5038843;28;20458;-26
2024/02/25 06:18:58;;;;;;;15.73;8.00;;;;;;;12.30;77.95;99821.63;5037858;28;20067;-27
2024/02/25 06:21:24;;;;;;;13.77;7.72;;;;;;;12.66;83.43;99834.38;5038344;28;20025;-27
2024/02/25 06:23:50;;;;;;;10.85;7.78;;;;;;;13.15;78.52;99831.94;5039754;28;20039;-27
2024/02/25 06:26:15;;;;;;;10.85;7.95;;;;;;;13.15;77.87;99839.16;5036267;28;20128;-27
2024/02/25 06:28:41;;;;;;;12.45;8.30;;;;;;;13.31;80.56;99838.66;5038640;28;20566;-28
2024/02/25 06:31:06;;;;;;;12.43;7.85;;;;;;;13.60;81.39;99826.44;5035070;28;20400;-27
2024/02/25 06:33:31;;;;;;;16.17;7.70;;;;;;;13.58;73.13;99827.72;5040433;28;20485;-27
2024/02/25 06:35:57;;;;;;;13.13;8.02;;;;;;;13.11;73.42;99834.25;5041055;28;20029;-27
2024/02/25 06:38:22;;;;;;;13.60;8.23;;;;;;;12.67;74.60;99824.50;5041115;28;20047;-27
2024/02/25 06:40:48;;;;;;;13.15;8.07;;;;;;;12.46;75.98;99818.44;5041299;28;20028;-27
2024/02/25 06:43:13;;;;;;;19.33;8.63;;;;;;;12.37;75.24;99814.41;5041172;28;20024;-27
2024/02/25 06:45:38;;;;;;;12.48;8.13;;;;;;;12.36;75.86;99811.97;5043901;28;20033;-26
2024/02/25 06:48:04;;;;;;;15.40;8.48;;;;;;;12.29;75.35;99810.13;5042918;28;20028;-26
2024/02/25 06:50:29;;;;;;;13.27;8.23;;;;;;;12.07;76.30;99803.44;5042180;28;20037;-28
2024/02/25 06:52:55;;;;;;;15.02;8.23;;;;;;;12.23;74.77;99810.16;5038816;28;20041;-27
2024/02/25 06:55:20;;;;;;;15.75;8.55;;;;;;;12.16;75.66;99806.72;5038530;28;20600;-27
2024/02/25 06:57:46;;;;;;;15.48;8.63;;;;;;;12.25;75.27;99810.78;5038333;28;20060;-26
2024/02/25 07:00:12;;;;;;;15.48;8.73;;;;;;;12.30;75.09;99810.97;5039669;28;20037;-27
2024/02/25 07:02:37;;;;;;;13.45;8.23;;;;;;;12.22;76.23;99805.84;5043067;28;20048;-28
2024/02/25 07:05:03;;;;;;;14.55;8.15;;;;;;;12.43;75.02;99821.56;5041635;28;20032;-29
2024/02/25 07:07:29;;;;;;;16.58;8.60;;;;;;;12.45;74.64;99819.50;5043650;28;20496;-28
2024/02/25 07:09:57;;;;;;;14.75;8.10;;;;;;;12.30;75.41;99821.63;5041838;28;20029;-28
2024/02/25 07:12:23;;;;;;;18.88;8.77;;;;;;;12.34;75.13;99820.19;5046306;28;20089;-28
2024/02/25 07:14:48;;;;;;;15.60;8.25;;;;;;;12.16;76.99;99814.72;5042995;28;20116;-27
2024/02/25 07:17:14;;;;;;;15.35;8.70;;;;;;;12.51;75.76;99821.31;5044571;28;20124;-28
2024/02/25 07:19:43;;;;;;;13.88;8.70;;;;;;;12.57;75.04;99819.63;5041732;28;20022;-29
2024/02/25 07:22:09;;;;;;;;;;;;;;;12.68;75.12;99818.94;5040778;28;20040;-27
2024/02/25 07:24:34;;;;;;;17.38;8.52;;;;;;;12.57;75.36;99811.63;5043339;28;20389;-28
2024/02/25 07:26:59;;;;;;;18.33;8.35;;;;;;;12.58;76.00;99809.75;5040106;28;20036;-27
2024/02/25 07:29:25;;;;;;;15.48;8.43;;;;;;;12.50;75.83;99816.19;5039174;28;20034;-27
2024/02/25 07:31:51;;;;;;;12.98;8.27;;;;;;;12.39;76.53;99816.84;5043110;28;20121;-27
2024/02/25 07:34:16;;;;;;;14.10;8.45;;;;;;;12.41;76.58;99823.59;5044412;28;20035;-28
2024/02/25 07:36:42;;;;;;;16.02;8.90;;;;;;;12.33;77.27;99834.53;5041470;28;20507;-26
2024/02/25 07:39:07;;;;;;;19.42;8.57;;;;;;;12.29;77.98;99823.47;5040568;28;20049;-28
2024/02/25 07:41:32;;;;;;;14.07;8.40;;;;;;;12.61;76.83;99820.84;5040115;28;20087;-29
2024/02/25 07:43:58;;;;;;;14.13;8.40;;;;;;;12.68;76.99;99820.81;5042524;28;20601;-26
2024/02/25 07:46:25;;;;;;;16.38;7.93;;;;;;;12.61;76.98;99817.34;5044329;28;20033;-27
2024/02/25 07:48:51;;;;;;;11.20;8.00;;;;;;;12.60;77.98;99813.84;5044213;28;20096;-27
2024/02/25 07:51:16;;;;;;;16.80;8.15;;;;;;;12.76;77.12;99809.88;5044255;28;20357;-27
2024/02/25 07:53:42;;;;;;;15.60;7.65;;;;;;;12.86;76.75;99809.38;5041595;28;20120;-27
2024/02/25 07:56:07;;;;;;;14.43;8.02;;;;;;;12.59;78.16;99798.88;5043447;28;20039;-28
2024/02/25 07:58:33;;;;;;;11.55;7.30;;;;;;;12.60;78.25;99797.81;5037031;28;20029;-27
2024/02/25 08:00:58;;;;;;;12.85;7.50;;;;;;;12.77;77.70;99792.78;5040984;28;20552;-27
2024/02/25 08:03:24;;;;;;;13.43;7.75;;;;;;;12.84;77.92;99798.09;5038248;28;20029;-28
2024/02/25 08:05:49;;;;;;;15.25;7.80;;;;;;;12.91;76.72;99785.53;5038231;28;20029;-28
2024/02/25 08:08:15;;;;;;;13.98;8.10;;;;;;;13.33;75.96;99798.31;5048554;28;20099;-40
2024/02/25 08:10:41;;;;;;;17.55;7.68;;;;;;;13.23;76.41;99804.97;5041698;28;20060;-41
2024/02/25 08:13:06;;;;;;;11.93;7.93;;;;;;;13.28;76.15;99802.44;5045040;28;20025;-39
2024/02/25 08:15:31;;;;;;;11.85;8.02;;;;;;;13.64;74.12;99808.09;5043830;28;20103;-42
2024/02/25 08:17:57;;;;;;;12.07;7.40;;;;;;;13.64;74.32;99814.25;5043302;28;20385;-38
2024/02/25 08:20:22;;;;;;;14.68;8.50;;;;;;;13.43;75.34;99804.81;5043710;28;20377;-40
2024/02/25 08:22:49;;;;;;;14.57;8.63;;;;;;;13.58;74.86;99811.66;5045879;28;20023;-39
2024/02/25 08:25:14;;;;;;;17.08;8.40;;;;;;;13.68;74.48;99802.06;5043519;28;20392;-40
2024/02/25 08:27:40;;;;;;;15.80;8.45;;;;;;;13.43;75.63;99799.47;5043810;28;20166;-39
2024/02/25 08:30:05;;;;;;;13.50;8.30;;;;;;;13.59;74.55;99803.41;5045617;28;20116;-40
2024/02/25 08:32:32;;;;;;;18.08;7.97;;;;;;;13.49;75.31;99803.09;5051921;28;20032;-42
2024/02/25 08:34:57;;;;;;;14.45;8.80;;;;;;;13.48;75.32;99802.31;5041124;28;20065;-40
2024/02/25 08:37:27;;;;;;;16.77;8.50;;;;;;;13.54;75.16;99810.47;5043352;28;20110;-41
2024/02/25 08:39:52;;;;;;;;;;;;;;;13.67;75.38;99805.00;5043838;28;20029;-46
2024/02/25 08:42:18;;;;;;;12.63;7.90;;;;;;;13.62;75.28;99807.50;5041970;28;19962;-41
2024/02/25 08:44:47;;;;;;;16.42;7.97;;;;;;;13.66;74.72;99803.34;5041797;28;20412;-41
2024/02/25 08:47:12;;;;;;;12.70;7.55;;;;;;;13.79;74.80;99792.50;5043223;28;20036;-41
2024/02/25 08:49:38;;;;;;;13.05;7.25;;;;;;;13.86;74.82;99793.25;5041290;28;20029;-39
2024/02/25 08:52:07;;;;;;;15.20;7.20;;;;;;;14.14;73.81;99783.03;5041399;28;20032;-46
2024/02/25 08:54:33;;;;;;;13.15;7.72;;;;;;;14.24;72.94;99783.31;5043619;28;20108;-43
2024/02/25 08:57:05;;;;;;;12.98;7.18;;;;;;;14.56;72.17;99775.03;5042018;28;20044;-36
2024/02/25 08:59:31;;;;;;;14.85;7.30;;;;;;;14.47;71.88;99766.53;5040362;28;20022;-40
2024/02/25 09:01:56;;;;;;;10.55;6.50;;;;;;;14.74;71.63;99766.16;5042410;28;20017;-42
2024/02/25 09:04:27;;;;;;;15.52;7.53;;;;;;;14.66;71.62;99770.00;5040287;28;20428;-42
2024/02/25 09:06:54;;;;;;;12.30;6.20;;;;;;;14.37;72.34;99750.19;5042976;28;20029;-40
2024/02/25 09:09:19;;;;;;;11.88;6.75;;;;;;;14.61;72.66;99767.97;5045865;28;20029;-40
2024/02/25 09:11:45;;;;;;;13.85;6.43;;;;;;;15.04;70.71;99766.91;5042805;28;20095;-41
2024/02/25 09:14:10;;;;;;;13.73;6.82;;;;;;;14.86;70.92;99767.78;5039814;28;20026;-40
2024/02/25 09:16:38;;;;;;;13.25;6.28;;;;;;;15.41;70.11;99761.28;5031658;28;20071;-39
2024/02/25 09:19:03;;;;;;;11.27;6.30;;;;;;;15.69;68.09;99766.94;5041346;28;20103;-40
2024/02/25 09:21:30;;;;;;;11.60;6.35;;;;;;;15.35;69.18;99753.38;5033871;28;20112;-39
2024/02/25 09:23:55;;;;;;;12.20;6.60;;;;;;;15.33;68.88;99750.94;5038518;28;20119;-40
2024/02/25 09:26:22;;;;;;;12.77;6.07;;;;;;;15.46;68.34;99739.16;5035124;28;20173;-41
2024/02/25 09:28:47;;;;;;;10.63;6.70;;;;;;;15.44;69.09;99743.94;5031558;28;20080;-40
2024/02/25 09:31:17;;;;;;;12.27;6.82;;;;;;;16.06;66.65;99745.19;5041755;28;20490;-41
2024/02/25 09:33:42;;;;;;;12.55;6.85;;;;;;;15.77;67.53;99740.63;5038522;28;20106;-40
2024/02/25 09:36:07;;;;;;;15.77;7.40;;;;;;;15.71;68.10;99738.06;5041629;28;20028;-40
2024/02/25 09:38:33;;;;;;;12.25;7.13;;;;;;;16.23;66.78;99735.31;5040573;28;20025;-40
2024/02/25 09:41:00;;;;;;;12.70;6.78;;;;;;;16.25;66.10;99733.19;5029743;28;20414;-41
2024/02/25 09:43:25;;;;;;;13.45;7.50;;;;;;;15.84;67.26;99732.44;5035359;28;20017;-40
2024/02/25 09:45:53;;;;;;;13.80;6.50;;;;;;;15.83;68.65;99720.06;5041350;28;20123;-37
2024/02/25 09:48:20;;;;;;;12.23;6.85;;;;;;;16.17;66.19;99730.91;5049448;28;20032;-43
2024/02/25 09:50:49;;;;;;;18.08;7.07;;;;;;;16.41;65.73;99721.69;5046965;28;20056;-40
2024/02/25 09:53:15;;;;;;;13.98;6.72;;;;;;;16.49;65.53;99714.28;5029071;28;20454;-39
2024/02/25 09:55:43;;;;;;;10.05;6.32;;;;;;;16.40;65.90;99716.53;5032683;28;20112;-39
2024/02/25 09:58:08;;;;;;;14.82;7.07;;;;;;;16.01;66.71;99721.75;5046576;28;20032;-40
2024/02/25 10:00:34;;;;;;;12.00;7.05;;;;;;;16.02;68.02;99718.81;5044975;28;20017;-40
2024/02/25 10:02:59;;;;;;;10.07;6.60;;;;;;;16.40;66.26;99711.97;5036214;28;20075;-39
2024/02/25 10:05:25;;;;;;;12.00;6.57;;;;;;;16.42;66.22;99704.50;5045799;28;20021;-40
2024/02/25 10:08:04;;;;;;;14.95;8.02;;;;;;;16.09;67.09;99686.47;5039625;28;20037;-39
2024/02/25 10:10:33;;;;;;;16.90;7.50;;;;;;;16.75;65.46;99678.72;5048793;28;20033;-40
2024/02/25 10:13:05;;;;;;;15.65;7.90;;;;;;;17.09;64.08;99673.28;5037317;28;20030;-44
2024/02/25 10:15:31;;;;;;;15.45;7.93;;;;;;;16.91;64.62;99665.53;5037857;28;20476;-40
2024/02/25 10:17:56;;;;;;;16.70;8.05;;;;;;;16.93;64.85;99661.53;5034037;28;20370;-40
2024/02/25 10:20:22;;;;;;;13.70;8.00;;;;;;;17.14;63.98;99668.00;5030377;28;20037;-40
2024/02/25 10:22:47;;;;;;;11.57;7.22;;;;;;;17.56;62.04;99662.06;5038796;28;20051;-41
2024/02/25 10:25:12;;;;;;;16.67;8.05;;;;;;;17.19;62.57;99654.63;5037502;28;20106;-40
2024/02/25 10:27:38;;;;;;;14.43;8.50;;;;;;;17.22;63.55;99639.88;5030804;28;20053;-40
2024/02/25 10:30:05;;;;;;;15.75;8.15;;;;;;;17.34;62.99;99647.81;5034381;28;20601;-39
2024/02/25 10:32:32;;;;;;;17.15;8.80;;;;;;;17.26;62.68;99650.94;5039477;28;20091;-39
2024/02/25 10:35:01;;;;;;;13.40;8.15;;;;;;;17.33;62.41;99648.88;5034959;28;20025;-41
2024/02/25 10:37:28;;;;;;;18.48;8.80;;;;;;;17.32;62.66;99645.34;5039072;28;20037;-40
2024/02/25 10:39:58;;;;;;;17.10;8.57;;;;;;;17.41;62.35;99651.13;5031455;28;20029;-39
2024/02/25 10:42:27;;;;;;;15.00;8.75;;;;;;;17.49;61.64;99649.88;5046774;28;20104;-41
2024/02/25 10:44:56;;;;;;;27.23;14.85;;;;;;;17.71;61.21;99642.59;5046858;28;20029;-39
2024/02/25 10:47:23;;;;;;;13.88;8.25;;;;;;;17.71;60.55;99647.16;5035294;28;20056;-44
2024/02/25 10:49:53;;;;;;;18.80;9.25;;;;;;;17.82;60.42;99648.06;5032481;28;20029;-39
2024/02/25 10:52:22;;;;;;;15.35;8.27;;;;;;;17.66;60.87;99645.22;5039120;28;20079;-39
2024/02/25 10:54:50;;;;;;;16.92;9.77;;;;;;;17.66;61.04;99644.41;5044839;28;20053;-39
2024/02/25 10:57:19;;;;;;;17.45;10.00;;;;;;;17.77;63.37;99638.88;5037149;28;20025;-40
2024/02/25 10:59:48;;;;;;;15.63;9.52;;;;;;;17.92;61.06;99638.25;5036704;28;20022;-41
2024/02/25 11:02:23;;;;;;;18.80;9.20;;;;;;;18.13;64.87;99635.75;5046118;28;20436;-39
2024/02/25 11:04:48;;;;;;;21.67;11.35;;;;;;;18.52;60.37;99638.22;5048609;28;20032;-40
2024/02/25 11:07:15;;;;;;;24.20;16.55;;;;;;;18.62;59.70;99632.91;5047893;28;20520;-40
2024/02/25 11:09:43;;;;;;;18.38;10.80;;;;;;;18.12;59.49;99628.75;5048436;28;20519;-39
2024/02/25 11:12:19;;;;;;;17.35;9.55;;;;;;;17.87;60.13;99640.09;5031924;28;20025;-40
2024/02/25 11:15:01;;;;;;;17.55;11.73;;;;;;;17.83;61.14;99631.66;5044800;28;20029;-40
2024/02/25 11:17:32;;;;;;;13.65;8.93;;;;;;;18.10;59.46;99636.25;5032277;28;20024;-40
2024/02/25 11:20:07;;;;;;;16.42;10.27;;;;;;;18.29;57.63;99636.69;5048543;28;20025;-39
2024/02/25 11:22:44;;;;;;;16.20;9.43;;;;;;;17.96;58.89;99620.53;5041425;28;20105;-38